createdAt,value
2018-04-16T00:01:08.075Z,0
2018-04-16T00:02:18.237Z,0
2018-04-16T00:03:28.425Z,0
2018-04-16T00:04:38.657Z,0
2018-04-16T00:05:48.801Z,0
2018-04-16T00:06:58.999Z,0
2018-04-16T00:08:09.167Z,0
2018-04-16T00:09:19.048Z,0
2018-04-16T00:10:29.222Z,0
2018-04-16T00:11:39.367Z,0
2018-04-16T00:12:49.510Z,0
2018-04-16T00:13:59.666Z,0
2018-04-16T00:15:09.926Z,0
2018-04-16T00:16:20.144Z,0
2018-04-16T00:17:30.383Z,0
2018-04-16T00:18:40.727Z,0
2018-04-16T00:19:50.882Z,0
2018-04-16T00:21:01.100Z,0
2018-04-16T00:22:11.275Z,0
2018-04-16T00:23:21.482Z,0
2018-04-16T00:24:31.759Z,0
2018-04-16T00:25:41.940Z,0
2018-04-16T00:26:52.103Z,0
2018-04-16T00:28:02.243Z,0
2018-04-16T00:29:12.410Z,0
2018-04-16T00:30:22.560Z,0
2018-04-16T00:31:32.719Z,0
2018-04-16T00:32:42.866Z,0
2018-04-16T00:33:53.040Z,0
2018-04-16T00:35:03.291Z,0
2018-04-16T00:36:13.455Z,0
2018-04-16T00:37:23.685Z,0
2018-04-16T00:38:33.665Z,0
2018-04-16T00:39:43.865Z,0
2018-04-16T00:40:54.096Z,0
2018-04-16T00:42:04.059Z,0
2018-04-16T00:43:14.284Z,0
2018-04-16T00:44:24.590Z,0
2018-04-16T00:45:34.828Z,0
2018-04-16T00:46:44.962Z,0
2018-04-16T00:47:55.134Z,0
2018-04-16T00:49:05.313Z,0
2018-04-16T00:50:15.639Z,0
2018-04-16T00:51:25.822Z,0
2018-04-16T00:52:35.973Z,0
2018-04-16T00:53:46.125Z,0
2018-04-16T00:54:56.121Z,0
2018-04-16T00:56:06.326Z,0
2018-04-16T00:57:16.560Z,0
2018-04-16T00:58:26.789Z,0
2018-04-16T00:59:36.389Z,0
2018-04-16T01:00:46.552Z,0
2018-04-16T01:01:56.452Z,0
2018-04-16T01:03:06.660Z,0
2018-04-16T01:04:16.855Z,0
2018-04-16T01:05:27.044Z,0
2018-04-16T01:06:37.192Z,0
2018-04-16T01:07:47.118Z,0
2018-04-16T01:08:57.303Z,0
2018-04-16T01:10:07.563Z,0
2018-04-16T01:11:17.731Z,0
2018-04-16T01:12:27.673Z,0
2018-04-16T01:13:37.816Z,0
2018-04-16T01:14:47.936Z,0
2018-04-16T01:15:58.177Z,0
2018-04-16T01:17:08.407Z,0
2018-04-16T01:18:18.555Z,0
2018-04-16T01:19:28.774Z,0
2018-04-16T01:20:38.935Z,0
2018-04-16T01:21:49.143Z,0
2018-04-16T01:22:59.333Z,0
2018-04-16T01:24:09.725Z,0
2018-04-16T01:25:19.900Z,0
2018-04-16T01:26:30.186Z,0
2018-04-16T01:27:40.485Z,0
2018-04-16T01:28:50.684Z,0
2018-04-16T01:30:00.836Z,0
2018-04-16T01:31:10.989Z,0
2018-04-16T01:32:21.207Z,0
2018-04-16T01:33:31.639Z,0
2018-04-16T01:34:41.822Z,0
2018-04-16T01:35:51.978Z,0
2018-04-16T01:37:02.227Z,0
2018-04-16T01:38:12.419Z,0
2018-04-16T01:39:22.624Z,0
2018-04-16T01:40:32.495Z,0
2018-04-16T01:41:42.623Z,0
2018-04-16T01:42:52.414Z,0
2018-04-16T01:44:02.606Z,0
2018-04-16T01:45:12.822Z,0
2018-04-16T01:46:22.715Z,0
2018-04-16T01:47:32.853Z,0
2018-04-16T01:48:42.981Z,0
2018-04-16T01:49:53.156Z,0
2018-04-16T01:51:03.324Z,0
2018-04-16T01:52:13.480Z,0
2018-04-16T01:53:23.689Z,0
2018-04-16T01:54:33.865Z,0
2018-04-16T01:55:44.133Z,0
2018-04-16T01:56:54.315Z,0
2018-04-16T01:58:04.454Z,0
2018-04-16T01:59:14.629Z,0
2018-04-16T02:00:24.819Z,0
2018-04-16T02:01:34.717Z,0
2018-04-16T02:02:45.083Z,0
2018-04-16T02:03:55.238Z,0
2018-04-16T02:05:05.409Z,0
2018-04-16T02:06:15.627Z,0
2018-04-16T02:07:25.904Z,0
2018-04-16T02:08:35.808Z,0
2018-04-16T02:09:45.996Z,0
2018-04-16T02:10:56.127Z,0
2018-04-16T02:12:06.317Z,0
2018-04-16T02:13:16.490Z,0
2018-04-16T02:14:26.416Z,0
2018-04-16T02:15:36.556Z,0
2018-04-16T02:16:46.846Z,0
2018-04-16T02:17:57.000Z,0
2018-04-16T02:19:07.223Z,0
2018-04-16T02:20:17.360Z,0
2018-04-16T02:21:27.523Z,0
2018-04-16T02:22:37.758Z,0
2018-04-16T02:23:47.938Z,0
2018-04-16T02:24:58.069Z,0
2018-04-16T02:26:08.232Z,0
2018-04-16T02:27:18.372Z,0
2018-04-16T02:28:28.580Z,0
2018-04-16T02:29:38.465Z,0
2018-04-16T02:30:48.664Z,0
2018-04-16T02:31:58.826Z,0
2018-04-16T02:33:08.963Z,0
2018-04-16T02:34:19.155Z,0
2018-04-16T02:35:29.329Z,0
2018-04-16T02:36:39.501Z,0
2018-04-16T02:37:49.795Z,0
2018-04-16T02:38:59.956Z,0
2018-04-16T02:40:10.209Z,0
2018-04-16T02:41:20.512Z,0
2018-04-16T02:42:30.823Z,0
2018-04-16T02:43:40.985Z,0
2018-04-16T02:44:50.871Z,0
2018-04-16T02:46:01.013Z,0
2018-04-16T02:47:11.168Z,0
2018-04-16T02:48:21.324Z,0
2018-04-16T02:49:31.464Z,0
2018-04-16T02:50:41.613Z,0
2018-04-16T02:51:51.808Z,0
2018-04-16T02:53:01.835Z,0
2018-04-16T02:54:11.970Z,0
2018-04-16T02:55:22.129Z,0
2018-04-16T02:56:32.381Z,0
2018-04-16T02:57:42.691Z,0
2018-04-16T02:58:52.279Z,0
2018-04-16T03:00:02.431Z,0
2018-04-16T03:01:12.606Z,0
2018-04-16T03:02:22.737Z,0
2018-04-16T03:03:32.881Z,0
2018-04-16T03:04:43.049Z,0
2018-04-16T03:05:52.999Z,0
2018-04-16T03:07:03.153Z,0
2018-04-16T03:08:13.280Z,0
2018-04-16T03:09:23.429Z,0
2018-04-16T03:10:33.609Z,0
2018-04-16T03:11:43.390Z,0
2018-04-16T03:12:53.329Z,0
2018-04-16T03:14:03.230Z,0
2018-04-16T03:15:13.434Z,0
2018-04-16T03:16:23.580Z,0
2018-04-16T03:17:33.523Z,0
2018-04-16T03:18:43.665Z,0
2018-04-16T03:19:53.849Z,0
2018-04-16T03:21:04.023Z,0
2018-04-16T03:22:14.356Z,0
2018-04-16T03:23:24.520Z,0
2018-04-16T03:24:34.801Z,0
2018-04-16T03:25:45.177Z,0
2018-04-16T03:26:55.311Z,0
2018-04-16T03:28:05.475Z,0
2018-04-16T03:29:15.622Z,0
2018-04-16T03:30:25.887Z,0
2018-04-16T03:31:36.058Z,0
2018-04-16T03:32:46.244Z,0
2018-04-16T03:33:56.402Z,0
2018-04-16T03:35:06.577Z,0
2018-04-16T03:36:16.719Z,0
2018-04-16T03:37:26.863Z,0
2018-04-16T03:38:37.024Z,0
2018-04-16T03:39:47.183Z,0
2018-04-16T03:40:57.446Z,0
2018-04-16T03:42:07.625Z,0
2018-04-16T03:43:17.770Z,0
2018-04-16T03:44:28.017Z,0
2018-04-16T03:45:38.238Z,0
2018-04-16T03:46:48.422Z,0
2018-04-16T03:47:58.564Z,0
2018-04-16T03:49:08.773Z,0
2018-04-16T03:50:18.939Z,0
2018-04-16T03:51:29.100Z,0
2018-04-16T03:52:39.250Z,0
2018-04-16T03:53:49.462Z,0
2018-04-16T03:54:59.610Z,0
2018-04-16T03:56:09.778Z,0
2018-04-16T03:57:19.918Z,0
2018-04-16T03:58:30.105Z,0
2018-04-16T03:59:40.257Z,0
2018-04-16T04:00:50.387Z,0
2018-04-16T04:02:00.248Z,0
2018-04-16T04:03:10.130Z,0
2018-04-16T04:04:20.405Z,0
2018-04-16T04:05:30.636Z,0
2018-04-16T04:06:40.840Z,0
2018-04-16T04:07:50.770Z,0
2018-04-16T04:09:00.928Z,0
2018-04-16T04:10:11.084Z,0
2018-04-16T04:11:21.229Z,0
2018-04-16T04:12:31.353Z,0
2018-04-16T04:13:41.495Z,0
2018-04-16T04:14:51.632Z,0
2018-04-16T04:16:01.761Z,0
2018-04-16T04:17:11.917Z,0
2018-04-16T04:18:22.106Z,0
2018-04-16T04:19:32.237Z,0
2018-04-16T04:20:42.416Z,0
2018-04-16T04:21:52.615Z,0
2018-04-16T04:23:03.029Z,0
2018-04-16T04:24:13.282Z,0
2018-04-16T04:25:23.513Z,0
2018-04-16T04:26:33.688Z,0
2018-04-16T04:27:43.597Z,0
2018-04-16T04:28:53.740Z,0
2018-04-16T04:30:03.871Z,0
2018-04-16T04:31:14.029Z,0
2018-04-16T04:32:24.303Z,0
2018-04-16T04:33:34.445Z,0
2018-04-16T04:34:44.727Z,0
2018-04-16T04:35:54.889Z,0
2018-04-16T04:37:05.043Z,0
2018-04-16T04:38:15.364Z,0
2018-04-16T04:39:25.597Z,0
2018-04-16T04:40:35.783Z,0
2018-04-16T04:41:46.016Z,0
2018-04-16T04:42:56.143Z,5
2018-04-16T04:44:06.357Z,5
2018-04-16T04:45:16.721Z,5
2018-04-16T04:46:26.879Z,5
2018-04-16T04:47:37.060Z,5
2018-04-16T04:48:47.404Z,5
2018-04-16T04:49:57.621Z,5
2018-04-16T04:51:07.808Z,5
2018-04-16T04:52:18.017Z,5
2018-04-16T04:53:28.172Z,5
2018-04-16T04:54:38.072Z,5
2018-04-16T04:55:48.196Z,5
2018-04-16T04:56:57.984Z,5
2018-04-16T04:58:08.160Z,5
2018-04-16T04:59:18.421Z,5
2018-04-16T05:00:28.604Z,5
2018-04-16T05:01:38.524Z,10
2018-04-16T05:02:48.666Z,10
2018-04-16T05:03:58.922Z,10
2018-04-16T05:05:09.116Z,10
2018-04-16T05:06:19.053Z,10
2018-04-16T05:07:29.208Z,10
2018-04-16T05:08:39.111Z,10
2018-04-16T05:09:49.407Z,10
2018-04-16T05:10:59.698Z,10
2018-04-16T05:12:09.604Z,10
2018-04-16T05:13:19.774Z,15
2018-04-16T05:14:29.942Z,15
2018-04-16T05:15:39.813Z,20
2018-04-16T05:16:50.009Z,20
2018-04-16T05:18:00.271Z,20
2018-04-16T05:19:10.408Z,25
2018-04-16T05:20:20.574Z,25
2018-04-16T05:21:30.754Z,30
2018-04-16T05:22:40.886Z,30
2018-04-16T05:23:51.048Z,35
2018-04-16T05:25:01.222Z,35
2018-04-16T05:26:11.369Z,40
2018-04-16T05:27:21.548Z,40
2018-04-16T05:28:31.756Z,40
2018-04-16T05:29:41.875Z,40
2018-04-16T05:30:52.035Z,40
2018-04-16T05:32:02.183Z,40
2018-04-16T05:33:12.328Z,40
2018-04-16T05:34:22.481Z,40
2018-04-16T05:35:32.781Z,35
2018-04-16T05:36:43.019Z,35
2018-04-16T05:37:53.239Z,35
2018-04-16T05:39:03.511Z,35
2018-04-16T05:40:13.705Z,35
2018-04-16T05:41:23.974Z,35
2018-04-16T05:42:34.293Z,35
2018-04-16T05:43:44.489Z,35
2018-04-16T05:44:54.633Z,35
2018-04-16T05:46:04.833Z,35
2018-04-16T05:47:15.068Z,40
2018-04-16T05:48:25.345Z,40
2018-04-16T05:49:35.584Z,40
2018-04-16T05:50:45.792Z,40
2018-04-16T05:51:55.937Z,40
2018-04-16T05:53:06.126Z,40
2018-04-16T05:54:16.382Z,40
2018-04-16T05:55:26.548Z,40
2018-04-16T05:56:36.740Z,40
2018-04-16T05:57:47.080Z,40
2018-04-16T05:58:57.365Z,45
2018-04-16T06:00:07.581Z,45
2018-04-16T06:01:17.804Z,45
2018-04-16T06:02:28.020Z,50
2018-04-16T06:03:38.179Z,50
2018-04-16T06:04:48.345Z,50
2018-04-16T06:05:58.532Z,50
2018-04-16T06:07:08.804Z,50
2018-04-16T06:08:19.074Z,55
2018-04-16T06:09:29.343Z,55
2018-04-16T06:10:39.536Z,60
2018-04-16T06:11:49.728Z,60
2018-04-16T06:12:59.951Z,60
2018-04-16T06:14:10.203Z,60
2018-04-16T06:15:20.392Z,60
2018-04-16T06:16:30.169Z,60
2018-04-16T06:17:40.322Z,60
2018-04-16T06:18:50.526Z,60
2018-04-16T06:20:00.676Z,60
2018-04-16T06:21:10.840Z,60
2018-04-16T06:22:20.401Z,60
2018-04-16T06:23:30.546Z,55
2018-04-16T06:24:40.760Z,55
2018-04-16T06:25:50.927Z,55
2018-04-16T06:27:01.123Z,55
2018-04-16T06:28:11.315Z,55
2018-04-16T06:29:21.468Z,55
2018-04-16T06:30:31.732Z,55
2018-04-16T06:31:41.912Z,55
2018-04-16T06:32:52.108Z,55
2018-04-16T06:34:02.272Z,55
2018-04-16T06:35:12.425Z,60
2018-04-16T06:36:22.576Z,60
2018-04-16T06:37:32.697Z,60
2018-04-16T06:38:42.894Z,60
2018-04-16T06:39:53.085Z,55
2018-04-16T06:41:03.379Z,60
2018-04-16T06:42:13.594Z,60
2018-04-16T06:43:23.851Z,60
2018-04-16T06:44:34.040Z,60
2018-04-16T06:45:44.235Z,60
2018-04-16T06:46:54.390Z,65
2018-04-16T06:48:04.182Z,65
2018-04-16T06:49:14.362Z,60
2018-04-16T06:50:24.566Z,65
2018-04-16T06:51:34.728Z,65
2018-04-16T06:52:44.931Z,65
2018-04-16T06:53:55.145Z,75
2018-04-16T06:55:05.323Z,75
2018-04-16T06:56:15.442Z,80
2018-04-16T06:57:25.588Z,90
2018-04-16T06:58:35.788Z,95
2018-04-16T06:59:45.709Z,100
2018-04-16T07:00:55.993Z,110
2018-04-16T07:02:06.523Z,105
2018-04-16T07:03:16.703Z,100
2018-04-16T07:04:26.897Z,90
2018-04-16T07:05:36.733Z,85
2018-04-16T07:06:46.966Z,80
2018-04-16T07:07:57.123Z,85
2018-04-16T07:09:07.321Z,90
2018-04-16T07:10:17.568Z,100
2018-04-16T07:11:27.477Z,110
2018-04-16T07:12:37.367Z,115
2018-04-16T07:13:47.651Z,115
2018-04-16T07:14:57.797Z,110
2018-04-16T07:16:08.275Z,95
2018-04-16T07:17:17.894Z,85
2018-04-16T07:18:28.040Z,80
2018-04-16T07:19:38.278Z,75
2018-04-16T07:20:48.096Z,75
2018-04-16T07:21:57.722Z,75
2018-04-16T07:23:07.954Z,80
2018-04-16T07:24:18.226Z,80
2018-04-16T07:25:28.404Z,85
2018-04-16T07:26:38.346Z,85
2018-04-16T07:27:48.484Z,80
2018-04-16T07:28:58.293Z,80
2018-04-16T07:30:08.148Z,75
2018-04-16T07:31:18.338Z,70
2018-04-16T07:32:28.523Z,65
2018-04-16T07:33:38.904Z,60
2018-04-16T07:34:49.071Z,55
2018-04-16T07:35:59.305Z,55
2018-04-16T07:37:09.447Z,55
2018-04-16T07:38:19.631Z,55
2018-04-16T07:39:29.796Z,55
2018-04-16T07:40:39.970Z,60
2018-04-16T07:41:50.154Z,60
2018-04-16T07:43:00.329Z,65
2018-04-16T07:44:10.478Z,70
2018-04-16T07:45:20.395Z,80
2018-04-16T07:46:30.558Z,85
2018-04-16T07:47:40.460Z,90
2018-04-16T07:48:50.741Z,90
2018-04-16T07:50:00.679Z,95
2018-04-16T07:51:10.868Z,95
2018-04-16T07:52:21.060Z,95
2018-04-16T07:53:31.229Z,95
2018-04-16T07:54:41.200Z,95
2018-04-16T07:55:51.349Z,100
2018-04-16T07:57:01.482Z,105
2018-04-16T07:58:11.623Z,110
2018-04-16T07:59:21.815Z,110
2018-04-16T08:00:32.093Z,115
2018-04-16T08:01:42.432Z,115
2018-04-16T08:02:52.591Z,120
2018-04-16T08:04:02.767Z,125
2018-04-16T08:05:12.948Z,135
2018-04-16T08:06:23.128Z,135
2018-04-16T08:07:33.341Z,135
2018-04-16T08:08:43.531Z,135
2018-04-16T08:09:53.705Z,130
2018-04-16T08:11:03.905Z,125
2018-04-16T08:12:14.060Z,120
2018-04-16T08:13:24.207Z,120
2018-04-16T08:14:34.362Z,125
2018-04-16T08:15:44.523Z,135
2018-04-16T08:16:54.730Z,140
2018-04-16T08:18:04.957Z,140
2018-04-16T08:19:15.112Z,135
2018-04-16T08:20:25.312Z,135
2018-04-16T08:21:35.141Z,135
2018-04-16T08:22:45.284Z,130
2018-04-16T08:23:55.064Z,130
2018-04-16T08:25:05.269Z,130
2018-04-16T08:26:15.219Z,130
2018-04-16T08:27:25.404Z,135
2018-04-16T08:28:35.562Z,140
2018-04-16T08:29:45.767Z,140
2018-04-16T08:30:55.894Z,135
2018-04-16T08:32:06.147Z,135
2018-04-16T08:33:16.439Z,135
2018-04-16T08:34:26.603Z,140
2018-04-16T08:35:36.825Z,150
2018-04-16T08:36:47.003Z,160
2018-04-16T08:37:57.200Z,160
2018-04-16T08:39:07.330Z,150
2018-04-16T08:40:17.584Z,135
2018-04-16T08:41:27.905Z,125
2018-04-16T08:42:38.113Z,125
2018-04-16T08:43:48.356Z,125
2018-04-16T08:44:58.550Z,120
2018-04-16T08:46:08.438Z,120
2018-04-16T08:47:18.600Z,120
2018-04-16T08:48:28.811Z,130
2018-04-16T08:49:39.048Z,130
2018-04-16T08:50:49.186Z,135
2018-04-16T08:51:59.445Z,135
2018-04-16T08:53:09.662Z,125
2018-04-16T08:54:19.598Z,120
2018-04-16T08:55:29.745Z,115
2018-04-16T08:56:39.889Z,120
2018-04-16T08:57:50.051Z,135
2018-04-16T08:59:00.279Z,150
2018-04-16T09:00:10.200Z,160
2018-04-16T09:01:20.076Z,170
2018-04-16T09:02:30.225Z,185
2018-04-16T09:03:40.397Z,200
2018-04-16T09:04:50.567Z,215
2018-04-16T09:06:00.721Z,225
2018-04-16T09:07:10.614Z,235
2018-04-16T09:08:20.797Z,230
2018-04-16T09:09:30.689Z,225
2018-04-16T09:10:40.873Z,225
2018-04-16T09:11:51.016Z,225
2018-04-16T09:13:00.835Z,230
2018-04-16T09:14:11.096Z,230
2018-04-16T09:15:21.336Z,230
2018-04-16T09:16:31.530Z,225
2018-04-16T09:17:41.700Z,220
2018-04-16T09:18:51.941Z,220
2018-04-16T09:20:02.091Z,210
2018-04-16T09:21:12.260Z,195
2018-04-16T09:22:22.027Z,180
2018-04-16T09:23:32.201Z,165
2018-04-16T09:24:42.329Z,160
2018-04-16T09:25:52.490Z,155
2018-04-16T09:27:02.745Z,150
2018-04-16T09:28:12.908Z,150
2018-04-16T09:29:23.118Z,150
2018-04-16T09:30:33.265Z,150
2018-04-16T09:31:43.494Z,155
2018-04-16T09:32:53.748Z,155
2018-04-16T09:34:03.884Z,160
2018-04-16T09:35:14.039Z,160
2018-04-16T09:36:24.187Z,160
2018-04-16T09:37:34.365Z,165
2018-04-16T09:38:44.525Z,175
2018-04-16T09:39:54.695Z,190
2018-04-16T09:41:04.655Z,205
2018-04-16T09:42:14.852Z,210
2018-04-16T09:43:25.050Z,215
2018-04-16T09:44:35.193Z,195
2018-04-16T09:45:45.387Z,175
2018-04-16T09:46:55.565Z,165
2018-04-16T09:48:05.208Z,165
2018-04-16T09:49:15.390Z,170
2018-04-16T09:50:25.370Z,175
2018-04-16T09:51:35.542Z,195
2018-04-16T09:52:45.713Z,210
2018-04-16T09:53:55.886Z,225
2018-04-16T09:55:06.093Z,235
2018-04-16T09:56:16.225Z,245
2018-04-16T09:57:26.429Z,250
2018-04-16T09:58:36.462Z,255
2018-04-16T09:59:46.637Z,260
2018-04-16T10:00:56.915Z,265
2018-04-16T10:02:07.137Z,280
2018-04-16T10:03:17.280Z,295
2018-04-16T10:04:27.249Z,315
2018-04-16T10:05:37.511Z,325
2018-04-16T10:06:47.723Z,340
2018-04-16T10:07:58.054Z,340
2018-04-16T10:09:08.307Z,335
2018-04-16T10:10:18.522Z,320
2018-04-16T10:11:28.853Z,295
2018-04-16T10:12:39.024Z,275
2018-04-16T10:13:49.187Z,270
2018-04-16T10:14:59.376Z,275
2018-04-16T10:16:09.534Z,275
2018-04-16T10:17:19.731Z,270
2018-04-16T10:18:30.009Z,270
2018-04-16T10:19:40.261Z,270
2018-04-16T10:20:50.543Z,265
2018-04-16T10:22:00.710Z,260
2018-04-16T10:23:10.599Z,245
2018-04-16T10:24:20.771Z,230
2018-04-16T10:25:30.943Z,215
2018-04-16T10:26:41.164Z,210
2018-04-16T10:27:51.333Z,210
2018-04-16T10:29:01.529Z,205
2018-04-16T10:30:11.700Z,205
2018-04-16T10:31:21.922Z,205
2018-04-16T10:32:32.278Z,205
2018-04-16T10:33:42.424Z,205
2018-04-16T10:34:52.585Z,200
2018-04-16T10:36:02.790Z,195
2018-04-16T10:37:13.104Z,190
2018-04-16T10:38:23.270Z,195
2018-04-16T10:39:33.427Z,205
2018-04-16T10:40:43.664Z,210
2018-04-16T10:41:53.837Z,220
2018-04-16T10:43:03.775Z,230
2018-04-16T10:44:13.931Z,240
2018-04-16T10:45:24.132Z,255
2018-04-16T10:46:34.504Z,260
2018-04-16T10:47:44.697Z,270
2018-04-16T10:48:54.865Z,275
2018-04-16T10:50:05.036Z,285
2018-04-16T10:51:14.948Z,290
2018-04-16T10:52:25.102Z,305
2018-04-16T10:53:35.265Z,320
2018-04-16T10:54:45.435Z,330
2018-04-16T10:55:55.618Z,335
2018-04-16T10:57:05.788Z,350
2018-04-16T10:58:16.005Z,355
2018-04-16T10:59:26.193Z,365
2018-04-16T11:00:36.344Z,375
2018-04-16T11:01:46.526Z,385
2018-04-16T11:02:56.693Z,405
2018-04-16T11:04:06.874Z,430
2018-04-16T11:05:17.048Z,450
2018-04-16T11:06:27.355Z,460
2018-04-16T11:07:37.499Z,465
2018-04-16T11:08:47.524Z,460
2018-04-16T11:09:57.743Z,450
2018-04-16T11:11:08.885Z,435
2018-04-16T11:12:19.287Z,425
2018-04-16T11:13:29.527Z,420
2018-04-16T11:14:39.719Z,430
2018-04-16T11:15:49.896Z,440
2018-04-16T11:17:00.081Z,450
2018-04-16T11:18:10.391Z,460
2018-04-16T11:19:20.740Z,455
2018-04-16T11:20:30.915Z,435
2018-04-16T11:21:41.172Z,410
2018-04-16T11:22:51.366Z,370
2018-04-16T11:24:01.602Z,350
2018-04-16T11:25:11.798Z,330
2018-04-16T11:26:21.988Z,320
2018-04-16T11:27:32.161Z,320
2018-04-16T11:28:42.355Z,330
2018-04-16T11:29:52.639Z,340
2018-04-16T11:31:02.824Z,350
2018-04-16T11:32:12.728Z,365
2018-04-16T11:33:22.890Z,375
2018-04-16T11:34:33.061Z,375
2018-04-16T11:35:43.277Z,380
2018-04-16T11:36:53.497Z,395
2018-04-16T11:38:03.860Z,415
2018-04-16T11:39:13.771Z,440
2018-04-16T11:40:23.933Z,465
2018-04-16T11:41:34.209Z,475
2018-04-16T11:42:44.383Z,485
2018-04-16T11:43:54.548Z,475
2018-04-16T11:45:04.711Z,460
2018-04-16T11:46:14.907Z,445
2018-04-16T11:47:25.091Z,435
2018-04-16T11:48:35.257Z,430
2018-04-16T11:49:45.397Z,435
2018-04-16T11:50:55.607Z,450
2018-04-16T11:52:05.802Z,460
2018-04-16T11:53:16.001Z,465
2018-04-16T11:54:26.256Z,465
2018-04-16T11:55:36.571Z,460
2018-04-16T11:56:46.844Z,455
2018-04-16T11:57:57.038Z,445
2018-04-16T11:59:07.217Z,440
2018-04-16T12:00:17.443Z,445
2018-04-16T12:01:27.613Z,465
2018-04-16T12:02:37.813Z,495
2018-04-16T12:03:47.973Z,555
2018-04-16T12:04:58.278Z,660
2018-04-16T12:06:08.516Z,705
2018-04-16T12:07:18.785Z,735
2018-04-16T12:08:28.937Z,785
2018-04-16T12:09:39.155Z,795
2018-04-16T12:10:49.331Z,755
2018-04-16T12:11:59.542Z,695
2018-04-16T12:13:09.810Z,670
2018-04-16T12:14:19.999Z,625
2018-04-16T12:15:30.167Z,595
2018-04-16T12:16:40.563Z,590
2018-04-16T12:17:50.787Z,590
2018-04-16T12:19:00.962Z,580
2018-04-16T12:20:11.182Z,555
2018-04-16T12:21:21.397Z,535
2018-04-16T12:22:31.365Z,505
2018-04-16T12:23:41.534Z,475
2018-04-16T12:24:51.716Z,460
2018-04-16T12:26:01.910Z,455
2018-04-16T12:27:12.068Z,455
2018-04-16T12:28:22.274Z,450
2018-04-16T12:29:32.444Z,440
2018-04-16T12:30:42.610Z,425
2018-04-16T12:31:52.762Z,415
2018-04-16T12:33:03.179Z,405
2018-04-16T12:34:13.361Z,405
2018-04-16T12:35:23.566Z,410
2018-04-16T12:36:33.833Z,420
2018-04-16T12:37:44.025Z,435
2018-04-16T12:38:54.177Z,455
2018-04-16T12:40:04.340Z,475
2018-04-16T12:41:14.668Z,500
2018-04-16T12:42:24.917Z,550
2018-04-16T12:43:35.156Z,635
2018-04-16T12:44:45.341Z,680
2018-04-16T12:45:55.554Z,700
2018-04-16T12:47:05.726Z,715
2018-04-16T12:48:16.074Z,675
2018-04-16T12:49:26.235Z,635
2018-04-16T12:50:36.398Z,620
2018-04-16T12:51:46.548Z,610
2018-04-16T12:52:56.771Z,600
2018-04-16T12:54:06.942Z,595
2018-04-16T12:55:17.091Z,580
2018-04-16T12:56:27.243Z,555
2018-04-16T12:57:37.409Z,520
2018-04-16T12:58:47.570Z,490
2018-04-16T12:59:57.770Z,465
2018-04-16T13:01:07.982Z,455
2018-04-16T13:02:18.131Z,455
2018-04-16T13:03:28.390Z,465
2018-04-16T13:04:38.639Z,470
2018-04-16T13:05:48.942Z,470
2018-04-16T13:06:59.106Z,470
2018-04-16T13:08:08.883Z,470
2018-04-16T13:09:19.039Z,475
2018-04-16T13:10:28.825Z,475
2018-04-16T13:11:39.016Z,470
2018-04-16T13:12:48.859Z,455
2018-04-16T13:13:59.119Z,450
2018-04-16T13:15:09.286Z,460
2018-04-16T13:16:19.523Z,475
2018-04-16T13:17:30.658Z,515
2018-04-16T13:18:40.857Z,625
2018-04-16T13:19:50.644Z,685
2018-04-16T13:21:00.852Z,745
2018-04-16T13:22:11.121Z,830
2018-04-16T13:23:21.286Z,795
2018-04-16T13:24:31.199Z,790
2018-04-16T13:25:41.356Z,810
2018-04-16T13:26:51.555Z,875
2018-04-16T13:28:01.749Z,1035
2018-04-16T13:29:11.918Z,1175
2018-04-16T13:30:22.093Z,1100
2018-04-16T13:31:32.268Z,1035
2018-04-16T13:32:42.418Z,970
2018-04-16T13:33:52.637Z,1105
2018-04-16T13:35:02.835Z,1065
2018-04-16T13:36:13.026Z,965
2018-04-16T13:37:23.213Z,845
2018-04-16T13:38:33.362Z,870
2018-04-16T13:39:43.544Z,730
2018-04-16T13:40:53.719Z,665
2018-04-16T13:42:03.882Z,620
2018-04-16T13:43:14.177Z,585
2018-04-16T13:44:24.347Z,565
2018-04-16T13:45:34.524Z,560
2018-04-16T13:46:44.706Z,565
2018-04-16T13:47:54.616Z,580
2018-04-16T13:49:04.772Z,590
2018-04-16T13:50:15.043Z,585
2018-04-16T13:51:25.266Z,580
2018-04-16T13:52:35.454Z,590
2018-04-16T13:53:45.633Z,580
2018-04-16T13:54:55.850Z,560
2018-04-16T13:56:06.019Z,560
2018-04-16T13:57:16.260Z,535
2018-04-16T13:58:26.417Z,515
2018-04-16T13:59:36.605Z,495
2018-04-16T14:00:46.794Z,485
2018-04-16T14:01:56.987Z,470
2018-04-16T14:03:07.159Z,460
2018-04-16T14:04:17.435Z,445
2018-04-16T14:05:26.979Z,430
2018-04-16T14:06:36.782Z,425
2018-04-16T14:07:47.041Z,425
2018-04-16T14:08:57.219Z,415
2018-04-16T14:10:07.472Z,410
2018-04-16T14:11:17.629Z,400
2018-04-16T14:12:27.780Z,390
2018-04-16T14:13:37.961Z,385
2018-04-16T14:14:48.234Z,380
2018-04-16T14:15:58.410Z,370
2018-04-16T14:17:08.558Z,360
2018-04-16T14:18:18.757Z,345
2018-04-16T14:19:29.060Z,325
2018-04-16T14:20:39.286Z,320
2018-04-16T14:21:49.471Z,310
2018-04-16T14:22:59.646Z,310
2018-04-16T14:24:09.845Z,310
2018-04-16T14:25:20.071Z,305
2018-04-16T14:26:30.289Z,315
2018-04-16T14:27:40.447Z,315
2018-04-16T14:28:50.654Z,305
2018-04-16T14:30:00.913Z,305
2018-04-16T14:31:11.278Z,305
2018-04-16T14:32:21.462Z,300
2018-04-16T14:33:31.693Z,290
2018-04-16T14:34:41.880Z,290
2018-04-16T14:35:52.095Z,290
2018-04-16T14:37:02.330Z,290
2018-04-16T14:38:12.553Z,290
2018-04-16T14:39:22.768Z,285
2018-04-16T14:40:32.969Z,285
2018-04-16T14:41:43.177Z,285
2018-04-16T14:42:53.462Z,285
2018-04-16T14:44:03.632Z,285
2018-04-16T14:45:13.827Z,285
2018-04-16T14:46:24.060Z,290
2018-04-16T14:47:34.270Z,295
2018-04-16T14:48:44.528Z,315
2018-04-16T14:49:54.735Z,310
2018-04-16T14:51:04.917Z,315
2018-04-16T14:52:15.243Z,310
2018-04-16T14:53:25.168Z,310
2018-04-16T14:54:35.366Z,305
2018-04-16T14:55:45.582Z,290
2018-04-16T14:56:55.557Z,280
2018-04-16T14:58:05.867Z,270
2018-04-16T14:59:16.097Z,260
2018-04-16T15:00:26.314Z,250
2018-04-16T15:01:36.477Z,245
2018-04-16T15:02:46.687Z,245
2018-04-16T15:03:56.888Z,240
2018-04-16T15:05:07.135Z,235
2018-04-16T15:06:17.331Z,230
2018-04-16T15:07:27.529Z,230
2018-04-16T15:08:37.769Z,230
2018-04-16T15:09:47.999Z,225
2018-04-16T15:10:58.186Z,225
2018-04-16T15:12:08.428Z,225
2018-04-16T15:13:18.677Z,220
2018-04-16T15:14:28.662Z,215
2018-04-16T15:15:38.843Z,210
2018-04-16T15:16:49.027Z,210
2018-04-16T15:17:59.232Z,210
2018-04-16T15:19:09.452Z,210
2018-04-16T15:20:19.684Z,210
2018-04-16T15:21:29.888Z,210
2018-04-16T15:22:40.072Z,210
2018-04-16T15:23:50.286Z,215
2018-04-16T15:25:00.532Z,210
2018-04-16T15:26:10.704Z,210
2018-04-16T15:27:20.906Z,210
2018-04-16T15:28:31.180Z,205
2018-04-16T15:29:42.315Z,205
2018-04-16T15:30:52.525Z,200
2018-04-16T15:32:02.745Z,195
2018-04-16T15:33:12.959Z,195
2018-04-16T15:34:23.194Z,190
2018-04-16T15:35:33.476Z,185
2018-04-16T15:36:43.799Z,185
2018-04-16T15:37:53.991Z,185
2018-04-16T15:39:04.159Z,185
2018-04-16T15:40:14.334Z,185
2018-04-16T15:41:24.550Z,180
2018-04-16T15:42:34.745Z,180
2018-04-16T15:43:44.918Z,180
2018-04-16T15:44:55.101Z,175
2018-04-16T15:46:05.401Z,175
2018-04-16T15:47:15.668Z,175
2018-04-16T15:48:25.640Z,170
2018-04-16T15:49:35.822Z,170
2018-04-16T15:50:45.765Z,170
2018-04-16T15:51:56.034Z,170
2018-04-16T15:53:06.254Z,165
2018-04-16T15:54:16.627Z,165
2018-04-16T15:55:26.794Z,170
2018-04-16T15:56:36.968Z,165
2018-04-16T15:57:47.171Z,160
2018-04-16T15:58:57.418Z,160
2018-04-16T16:00:07.598Z,160
2018-04-16T16:01:17.526Z,155
2018-04-16T16:02:27.768Z,155
2018-04-16T16:03:37.964Z,155
2018-04-16T16:04:48.153Z,150
2018-04-16T16:05:58.340Z,150
2018-04-16T16:07:08.220Z,150
2018-04-16T16:08:19.430Z,150
2018-04-16T16:09:29.658Z,150
2018-04-16T16:10:40.127Z,145
2018-04-16T16:11:50.366Z,145
2018-04-16T16:13:00.657Z,145
2018-04-16T16:14:10.865Z,145
2018-04-16T16:15:21.320Z,140
2018-04-16T16:16:31.565Z,140
2018-04-16T16:17:41.774Z,140
2018-04-16T16:18:52.086Z,135
2018-04-16T16:20:02.102Z,135
2018-04-16T16:21:12.278Z,135
2018-04-16T16:22:22.461Z,135
2018-04-16T16:23:33.611Z,130
2018-04-16T16:24:43.837Z,130
2018-04-16T16:25:54.082Z,125
2018-04-16T16:27:04.315Z,125
2018-04-16T16:28:14.573Z,125
2018-04-16T16:29:24.743Z,120
2018-04-16T16:30:34.930Z,120
2018-04-16T16:31:44.906Z,120
2018-04-16T16:32:54.809Z,115